Time;durP1;ratioP1;P1;durP2;ratioP2;P2;SDS_P1;SDS_P2;PMS_P1;PMS_P2;Temp;Humidity;BMP_temperature;BMP_pressure;BME280_temperature;BME280_humidity;BME280_pressure;Samples;Min_cycle;Max_cycle;Signal;HPM_P1;HPM_P2
2023/12/21 00:00:53;;;;;;;14.40;13.32;;;;;;;;;;5064645;28;20052;-73
2023/12/21 00:03:23;;;;;;;17.55;16.05;;;;;;;;;;5064190;28;20055;-76
2023/12/21 00:05:54;;;;;;;11.93;10.82;;;;;;;;;;5064125;28;20053;-77
2023/12/21 00:08:25;;;;;;;14.40;12.93;;;;;;;;;;5064597;28;20041;-74
2023/12/21 00:10:55;;;;;;;14.65;13.50;;;;;;;;;;5064423;28;20505;-73
2023/12/21 00:13:26;;;;;;;18.90;17.48;;;;;;;;;;5063920;28;20044;-75
2023/12/21 00:15:58;;;;;;;18.77;17.00;;;;;;;;;;5064209;28;20809;-73
2023/12/21 00:18:28;;;;;;;13.23;11.88;;;;;;;;;;5063640;28;20052;-75
2023/12/21 00:20:58;;;;;;;35.78;33.30;;;;;;;;;;5062974;28;20422;-78
2023/12/21 00:23:29;;;;;;;31.67;28.67;;;;;;;;;;5044952;28;20119;-74
2023/12/21 00:26:02;;;;;;;24.65;22.75;;;;;;;;;;5044655;28;20396;-74
2023/12/21 00:28:33;;;;;;;14.50;13.10;;;;;;;;;;5044646;28;20053;-75
2023/12/21 00:31:07;;;;;;;15.05;13.95;;;;;;;;;;5043884;28;20048;-74
2023/12/21 00:33:38;;;;;;;13.13;12.02;;;;;;;;;;5043449;28;20065;-73
2023/12/21 00:36:15;;;;;;;17.80;15.48;;;;;;;;;;5046602;28;20503;-76
2023/12/21 00:38:46;;;;;;;12.63;11.43;;;;;;;;;;5052912;28;20041;-75
2023/12/21 00:41:16;;;;;;;13.52;12.48;;;;;;;;;;5050927;28;20464;-75
2023/12/21 00:43:49;;;;;;;12.63;11.60;;;;;;;;;;5054055;28;20033;-75
2023/12/21 00:46:20;;;;;;;15.52;14.27;;;;;;;;;;5054494;28;20412;-74
2023/12/21 00:48:50;;;;;;;16.67;13.10;;;;;;;;;;5054694;28;20052;-75
2023/12/21 00:51:20;;;;;;;20.25;18.40;;;;;;;;;;5055777;28;20053;-74
2023/12/21 00:53:51;;;;;;;18.17;16.70;;;;;;;;;;5044051;28;20503;-76
2023/12/21 00:56:22;;;;;;;15.68;14.38;;;;;;;;;;5042691;28;20057;-74
2023/12/21 00:58:53;;;;;;;13.20;12.27;;;;;;;;;;5044065;28;20114;-74
2023/12/21 01:01:23;;;;;;;17.67;16.02;;;;;;;;;;5043924;28;20041;-74
2023/12/21 01:03:57;;;;;;;15.68;14.23;;;;;;;;;;5047447;28;20817;-76
2023/12/21 01:06:31;;;;;;;14.10;12.68;;;;;;;;;;5054792;28;20052;-76
2023/12/21 01:09:03;;;;;;;12.98;12.05;;;;;;;;;;5048801;28;20056;-76
2023/12/21 01:11:33;;;;;;;14.00;12.90;;;;;;;;;;5043578;28;20045;-79
2023/12/21 01:14:04;;;;;;;13.20;12.23;;;;;;;;;;5042515;28;20053;-75
2023/12/21 01:16:35;;;;;;;14.25;13.07;;;;;;;;;;5043287;28;20037;-74
2023/12/21 01:19:07;;;;;;;13.73;11.10;;;;;;;;;;5042969;28;20055;-75
2023/12/21 01:21:37;;;;;;;14.93;13.07;;;;;;;;;;5042949;28;20053;-77
2023/12/21 01:24:08;;;;;;;38.55;35.75;;;;;;;;;;5043305;28;20813;-76
2023/12/21 01:26:40;;;;;;;15.00;13.90;;;;;;;;;;5057784;28;20059;-76
2023/12/21 01:29:10;;;;;;;12.70;11.27;;;;;;;;;;5061379;28;20037;-75
2023/12/21 01:31:41;;;;;;;12.95;11.88;;;;;;;;;;5041412;28;20045;-74
2023/12/21 01:34:13;;;;;;;17.98;16.73;;;;;;;;;;5041162;28;20056;-73
2023/12/21 01:36:45;;;;;;;14.52;13.40;;;;;;;;;;5039025;28;20059;-73
2023/12/21 01:39:15;;;;;;;13.38;12.15;;;;;;;;;;5040496;28;20165;-73
2023/12/21 01:41:49;;;;;;;12.68;11.55;;;;;;;;;;5040613;28;20056;-75
2023/12/21 01:44:21;;;;;;;13.85;12.55;;;;;;;;;;5042620;28;20381;-74
2023/12/21 01:46:52;;;;;;;12.15;11.25;;;;;;;;;;5042632;28;20056;-75
2023/12/21 01:49:23;;;;;;;13.25;12.10;;;;;;;;;;5042067;28;20041;-74
2023/12/21 01:51:59;;;;;;;16.73;15.52;;;;;;;;;;5042394;28;20498;-74
2023/12/21 01:54:29;;;;;;;13.63;12.40;;;;;;;;;;5042818;28;20040;-75
2023/12/21 01:57:00;;;;;;;13.05;11.85;;;;;;;;;;5039788;28;20582;-73
2023/12/21 01:59:31;;;;;;;11.35;10.40;;;;;;;;;;5039222;28;20049;-74
2023/12/21 02:02:03;;;;;;;12.85;11.98;;;;;;;;;;5039076;28;20060;-75
2023/12/21 02:04:36;;;;;;;13.60;12.35;;;;;;;;;;5039424;28;20419;-73
2023/12/21 02:07:08;;;;;;;13.05;11.73;;;;;;;;;;5039597;28;20503;-74
2023/12/21 02:09:38;;;;;;;15.82;14.50;;;;;;;;;;5039727;28;20063;-75
2023/12/21 02:12:09;;;;;;;14.07;12.93;;;;;;;;;;5039821;28;20045;-74
2023/12/21 02:14:41;;;;;;;24.38;22.65;;;;;;;;;;5039607;28;20056;-74
2023/12/21 02:17:19;;;;;;;14.27;12.75;;;;;;;;;;5039057;28;20082;-73
2023/12/21 02:19:50;;;;;;;86.55;80.35;;;;;;;;;;5039840;28;20053;-73
2023/12/21 02:22:24;;;;;;;14.15;12.75;;;;;;;;;;5039164;28;20618;-74
2023/12/21 02:24:56;;;;;;;13.45;12.52;;;;;;;;;;5040014;28;20052;-75
2023/12/21 02:27:27;;;;;;;16.33;15.13;;;;;;;;;;5038972;28;20055;-74
2023/12/21 02:29:57;;;;;;;18.70;17.40;;;;;;;;;;5039734;28;20049;-74
2023/12/21 02:32:28;;;;;;;28.17;25.90;;;;;;;;;;5038967;28;20052;-74
2023/12/21 02:34:59;;;;;;;25.15;23.05;;;;;;;;;;5039069;28;20833;-75
2023/12/21 02:37:32;;;;;;;14.15;12.68;;;;;;;;;;5038903;28;20052;-74
2023/12/21 02:40:03;;;;;;;14.88;13.98;;;;;;;;;;5038362;28;20052;-74
2023/12/21 02:42:38;;;;;;;11.02;10.10;;;;;;;;;;5021503;28;20059;-73
2023/12/21 02:45:09;;;;;;;11.40;10.70;;;;;;;;;;5040038;28;20545;-74
2023/12/21 02:47:40;;;;;;;98.63;91.68;;;;;;;;;;5043144;28;20858;-74
2023/12/21 02:50:13;;;;;;;10.45;9.55;;;;;;;;;;5043061;28;20048;-75
2023/12/21 02:52:44;;;;;;;12.70;11.80;;;;;;;;;;5043400;28;20060;-74
2023/12/21 02:55:21;;;;;;;13.70;12.70;;;;;;;;;;5041802;28;20812;-75
2023/12/21 02:57:54;;;;;;;13.95;12.93;;;;;;;;;;5043035;28;20052;-75
2023/12/21 03:00:24;;;;;;;12.35;11.45;;;;;;;;;;5043506;28;20052;-74
2023/12/21 03:02:54;;;;;;;11.82;11.05;;;;;;;;;;5043189;28;20049;-74
2023/12/21 03:05:25;;;;;;;11.85;10.98;;;;;;;;;;5042974;28;20068;-76
2023/12/21 03:07:57;;;;;;;12.90;11.07;;;;;;;;;;5042889;28;20773;-75
2023/12/21 03:10:27;;;;;;;11.93;10.93;;;;;;;;;;5042822;28;20053;-74
2023/12/21 03:12:57;;;;;;;31.23;28.95;;;;;;;;;;5042526;28;20049;-74
2023/12/21 03:15:27;;;;;;;33.78;31.40;;;;;;;;;;5042535;28;20407;-74
2023/12/21 03:17:58;;;;;;;27.55;25.55;;;;;;;;;;5042954;28;20053;-73
2023/12/21 03:20:30;;;;;;;28.35;26.45;;;;;;;;;;5042228;28;20052;-75
2023/12/21 03:23:01;;;;;;;29.95;27.55;;;;;;;;;;5042536;28;20052;-74
2023/12/21 03:25:31;;;;;;;26.38;24.55;;;;;;;;;;5042365;28;20056;-73
2023/12/21 03:28:05;;;;;;;25.70;23.80;;;;;;;;;;5042406;28;20972;-75
2023/12/21 03:30:36;;;;;;;30.13;27.95;;;;;;;;;;5042873;28;20041;-75
2023/12/21 03:33:07;;;;;;;27.80;25.77;;;;;;;;;;5042529;28;20499;-75
2023/12/21 03:35:37;;;;;;;30.42;28.25;;;;;;;;;;5042135;28;20045;-74
2023/12/21 03:38:07;;;;;;;26.80;24.70;;;;;;;;;;5042483;28;20052;-75
2023/12/21 03:40:38;;;;;;;28.27;26.30;;;;;;;;;;5042765;28;20443;-77
2023/12/21 03:43:10;;;;;;;25.80;23.98;;;;;;;;;;5042126;28;20045;-75
2023/12/21 03:45:41;;;;;;;26.85;24.80;;;;;;;;;;5042039;28;20059;-74
2023/12/21 03:48:11;;;;;;;29.80;27.35;;;;;;;;;;5041679;28;20064;-75
2023/12/21 03:50:42;;;;;;;17.38;15.70;;;;;;;;;;5042013;28;20049;-74
2023/12/21 03:53:16;;;;;;;16.77;15.48;;;;;;;;;;5040497;28;20055;-75
2023/12/21 03:55:47;;;;;;;14.85;13.60;;;;;;;;;;5041476;28;20522;-75
2023/12/21 03:58:17;;;;;;;34.80;32.35;;;;;;;;;;5042021;28;20530;-75
2023/12/21 04:00:48;;;;;;;14.63;13.63;;;;;;;;;;5041534;28;20503;-74
2023/12/21 04:03:19;;;;;;;14.50;13.50;;;;;;;;;;5041870;28;20049;-76
2023/12/21 04:05:49;;;;;;;12.43;11.48;;;;;;;;;;5041706;28;20503;-74
2023/12/21 04:08:21;;;;;;;15.60;14.45;;;;;;;;;;5041125;28;20059;-75
2023/12/21 04:10:52;;;;;;;12.13;11.05;;;;;;;;;;5041463;28;20476;-74
2023/12/21 04:13:23;;;;;;;35.15;32.70;;;;;;;;;;5041653;28;20056;-75
2023/12/21 04:15:54;;;;;;;17.75;16.30;;;;;;;;;;5042278;28;20068;-74
2023/12/21 04:18:24;;;;;;;12.95;11.93;;;;;;;;;;5041432;28;20049;-75
2023/12/21 04:20:56;;;;;;;29.67;27.77;;;;;;;;;;5041918;28;20398;-73
2023/12/21 04:23:30;;;;;;;13.55;12.65;;;;;;;;;;5041465;28;20048;-75
2023/12/21 04:26:00;;;;;;;13.73;12.50;;;;;;;;;;5040261;28;20051;-74
2023/12/21 04:28:31;;;;;;;13.65;12.65;;;;;;;;;;5041659;28;20053;-74
2023/12/21 04:31:01;;;;;;;13.52;12.50;;;;;;;;;;5040860;28;20056;-75
2023/12/21 04:33:33;;;;;;;16.05;14.88;;;;;;;;;;5041158;28;20056;-73
2023/12/21 04:36:04;;;;;;;28.77;26.58;;;;;;;;;;5040835;28;20049;-75
2023/12/21 04:38:34;;;;;;;15.52;14.45;;;;;;;;;;5040856;28;20053;-75
2023/12/21 04:41:05;;;;;;;14.85;13.50;;;;;;;;;;5040895;28;20049;-73
2023/12/21 04:43:35;;;;;;;17.55;16.35;;;;;;;;;;5040754;28;20467;-75
2023/12/21 04:46:06;;;;;;;14.05;12.95;;;;;;;;;;5041457;28;20045;-75
2023/12/21 04:48:37;;;;;;;23.35;21.67;;;;;;;;;;5040507;28;20048;-75
2023/12/21 04:51:15;;;;;;;14.85;13.43;;;;;;;;;;5041644;28;20045;-74
2023/12/21 04:53:46;;;;;;;16.88;15.82;;;;;;;;;;5041510;28;20057;-74
2023/12/21 04:56:17;;;;;;;14.10;13.07;;;;;;;;;;5039595;28;20420;-75
2023/12/21 04:58:47;;;;;;;14.63;13.55;;;;;;;;;;5041370;28;20053;-74
2023/12/21 05:01:18;;;;;;;19.42;18.02;;;;;;;;;;5041294;28;20056;-74
2023/12/21 05:03:50;;;;;;;15.73;14.52;;;;;;;;;;5040645;28;20068;-74
2023/12/21 05:06:21;;;;;;;18.30;16.58;;;;;;;;;;5040523;28;20041;-75
2023/12/21 05:08:51;;;;;;;19.63;18.00;;;;;;;;;;5038560;28;20508;-75
2023/12/21 05:11:23;;;;;;;17.65;15.95;;;;;;;;;;5039848;28;20059;-74
2023/12/21 05:13:55;;;;;;;14.23;12.88;;;;;;;;;;5040945;28;20045;-75
2023/12/21 05:16:25;;;;;;;14.35;13.25;;;;;;;;;;5039924;28;20048;-75
2023/12/21 05:18:56;;;;;;;20.20;18.80;;;;;;;;;;5040139;28;20041;-75
2023/12/21 05:21:27;;;;;;;14.45;13.35;;;;;;;;;;5040396;28;20053;-76
2023/12/21 05:23:58;;;;;;;33.45;31.10;;;;;;;;;;5039172;28;20496;-74
2023/12/21 05:26:28;;;;;;;13.65;12.45;;;;;;;;;;5040099;28;20045;-75
2023/12/21 05:28:58;;;;;;;24.75;23.27;;;;;;;;;;5039963;28;20511;-74
2023/12/21 05:31:29;;;;;;;14.00;13.05;;;;;;;;;;5039939;28;20052;-76
2023/12/21 05:34:01;;;;;;;23.88;22.02;;;;;;;;;;5040787;28;20049;-75
2023/12/21 05:36:32;;;;;;;23.83;22.10;;;;;;;;;;5040245;28;20067;-75
2023/12/21 05:39:03;;;;;;;20.75;19.30;;;;;;;;;;5039958;28;20052;-73
2023/12/21 05:41:47;;;;;;;13.00;12.00;;;;;;;;;;5040214;28;20120;-75
2023/12/21 05:44:18;;;;;;;42.50;39.70;;;;;;;;;;5039786;28;20056;-75
2023/12/21 05:46:50;;;;;;;39.95;37.22;;;;;;;;;;5038544;28;20048;-74
2023/12/21 05:49:21;;;;;;;17.48;16.00;;;;;;;;;;5039269;28;20052;-74
2023/12/21 05:51:51;;;;;;;19.90;18.50;;;;;;;;;;5039490;28;20064;-74
2023/12/21 05:54:22;;;;;;;36.00;33.33;;;;;;;;;;5040136;28;20051;-75
2023/12/21 05:56:53;;;;;;;18.23;17.02;;;;;;;;;;5039670;28;20060;-75
2023/12/21 05:59:24;;;;;;;18.05;16.58;;;;;;;;;;5038374;28;20053;-73
2023/12/21 06:01:54;;;;;;;40.05;37.40;;;;;;;;;;5039888;28;20048;-75
2023/12/21 06:04:25;;;;;;;18.95;17.60;;;;;;;;;;5039932;28;20546;-74
2023/12/21 06:06:56;;;;;;;16.77;15.35;;;;;;;;;;5039691;28;20045;-75
2023/12/21 06:09:27;;;;;;;16.90;15.15;;;;;;;;;;5040554;28;20084;-74
2023/12/21 06:11:57;;;;;;;17.08;15.77;;;;;;;;;;5039304;28;20052;-74
2023/12/21 06:14:28;;;;;;;16.27;15.07;;;;;;;;;;5039455;28;20049;-74
2023/12/21 06:16:58;;;;;;;18.35;15.20;;;;;;;;;;5040204;28;20056;-73
2023/12/21 06:19:29;;;;;;;17.17;15.60;;;;;;;;;;5039100;28;20112;-76
2023/12/21 06:21:59;;;;;;;21.92;20.27;;;;;;;;;;5039640;28;20044;-73
2023/12/21 06:24:30;;;;;;;18.85;17.42;;;;;;;;;;5039414;28;20049;-74
2023/12/21 06:27:02;;;;;;;18.45;17.05;;;;;;;;;;5038568;28;20049;-74
2023/12/21 06:29:32;;;;;;;18.80;16.92;;;;;;;;;;5039200;28;20041;-75
2023/12/21 06:32:03;;;;;;;17.10;15.27;;;;;;;;;;5039246;28;20059;-73
2023/12/21 06:34:34;;;;;;;16.88;15.57;;;;;;;;;;5038504;28;20053;-74
2023/12/21 06:37:05;;;;;;;17.08;15.68;;;;;;;;;;5039279;28;20053;-74
2023/12/21 06:39:35;;;;;;;18.08;16.75;;;;;;;;;;5038851;28;20049;-74
2023/12/21 06:42:06;;;;;;;16.70;15.43;;;;;;;;;;5039327;28;20503;-74
2023/12/21 06:44:37;;;;;;;15.60;14.38;;;;;;;;;;5039042;28;20514;-75
2023/12/21 06:47:09;;;;;;;19.15;17.42;;;;;;;;;;5038912;28;20415;-73
2023/12/21 06:49:39;;;;;;;35.75;33.35;;;;;;;;;;5038791;28;20455;-73
2023/12/21 06:52:10;;;;;;;19.73;18.30;;;;;;;;;;5039431;28;20049;-74
2023/12/21 06:54:40;;;;;;;21.33;19.50;;;;;;;;;;5038759;28;20049;-74
2023/12/21 06:57:11;;;;;;;20.05;18.45;;;;;;;;;;5039381;28;20084;-73
2023/12/21 06:59:41;;;;;;;17.77;16.25;;;;;;;;;;5039059;28;20048;-74
2023/12/21 07:02:11;;;;;;;18.00;16.10;;;;;;;;;;5039051;28;20087;-73
2023/12/21 07:04:42;;;;;;;18.70;17.23;;;;;;;;;;5038971;28;20064;-73
2023/12/21 07:07:12;;;;;;;17.77;16.65;;;;;;;;;;5039029;28;20064;-73
2023/12/21 07:09:45;;;;;;;17.08;15.45;;;;;;;;;;5038917;28;20064;-74
2023/12/21 07:12:15;;;;;;;17.75;16.52;;;;;;;;;;5038907;28;20056;-73
2023/12/21 07:14:46;;;;;;;20.40;18.80;;;;;;;;;;5039089;28;20060;-74
2023/12/21 07:17:17;;;;;;;23.80;21.75;;;;;;;;;;5038583;28;20048;-75
2023/12/21 07:19:48;;;;;;;17.10;15.93;;;;;;;;;;5038917;28;20049;-73
2023/12/21 07:22:18;;;;;;;18.75;17.27;;;;;;;;;;5039049;28;20050;-73
2023/12/21 07:24:48;;;;;;;16.65;15.27;;;;;;;;;;5037418;28;20610;-75
2023/12/21 07:27:19;;;;;;;37.10;34.35;;;;;;;;;;5038478;28;20418;-73
2023/12/21 07:29:49;;;;;;;31.70;29.23;;;;;;;;;;5038459;28;20423;-73
2023/12/21 07:32:21;;;;;;;21.05;19.48;;;;;;;;;;5041930;28;20045;-74
2023/12/21 07:34:52;;;;;;;23.77;21.80;;;;;;;;;;5041245;28;20061;-74
2023/12/21 07:37:22;;;;;;;18.48;17.08;;;;;;;;;;5043225;28;20049;-75
2023/12/21 07:39:53;;;;;;;21.45;19.45;;;;;;;;;;5043636;28;20052;-74
2023/12/21 07:42:24;;;;;;;33.65;31.15;;;;;;;;;;5045055;28;20037;-74
2023/12/21 07:44:55;;;;;;;19.00;17.40;;;;;;;;;;5045033;28;20045;-75
2023/12/21 07:47:25;;;;;;;20.77;18.88;;;;;;;;;;5044817;28;20055;-73
2023/12/21 07:49:56;;;;;;;19.95;18.52;;;;;;;;;;5044658;28;20056;-74
2023/12/21 07:52:28;;;;;;;19.20;17.58;;;;;;;;;;5044008;28;20060;-75
2023/12/21 07:54:59;;;;;;;21.30;19.58;;;;;;;;;;5043310;28;20606;-73
2023/12/21 07:57:30;;;;;;;20.67;19.27;;;;;;;;;;5044584;28;20525;-74
2023/12/21 08:00:00;;;;;;;20.13;18.38;;;;;;;;;;5044973;28;20392;-73
2023/12/21 08:02:40;;;;;;;19.92;18.52;;;;;;;;;;5046160;28;20507;-75
2023/12/21 08:05:13;;;;;;;21.98;20.58;;;;;;;;;;5044989;28;20049;-74
2023/12/21 08:07:43;;;;;;;20.30;18.98;;;;;;;;;;5044235;28;20572;-75
2023/12/21 08:10:14;;;;;;;21.30;19.67;;;;;;;;;;5044934;28;20744;-74
2023/12/21 08:12:46;;;;;;;23.65;21.38;;;;;;;;;;5044970;28;20057;-73
2023/12/21 08:15:16;;;;;;;19.70;18.42;;;;;;;;;;5044148;28;20067;-76
2023/12/21 08:17:51;;;;;;;20.40;19.02;;;;;;;;;;5044400;28;20515;-73
2023/12/21 08:20:25;;;;;;;20.92;19.33;;;;;;;;;;5044953;28;20048;-76
2023/12/21 08:22:56;;;;;;;20.08;18.38;;;;;;;;;;5043913;28;20152;-74
2023/12/21 08:25:26;;;;;;;19.88;18.63;;;;;;;;;;5044784;28;20064;-74
2023/12/21 08:27:56;;;;;;;20.33;18.88;;;;;;;;;;5044183;28;20045;-75
2023/12/21 08:30:27;;;;;;;21.40;19.85;;;;;;;;;;5044260;28;20423;-74
2023/12/21 08:32:58;;;;;;;22.50;20.67;;;;;;;;;;5043806;28;20053;-75
2023/12/21 08:35:29;;;;;;;19.48;17.88;;;;;;;;;;5043941;28;20059;-74
2023/12/21 08:38:00;;;;;;;23.70;21.85;;;;;;;;;;5044385;28;20045;-75
2023/12/21 08:40:32;;;;;;;21.65;20.05;;;;;;;;;;5043570;28;20872;-75
2023/12/21 08:43:04;;;;;;;17.58;16.17;;;;;;;;;;5044133;28;20859;-74
2023/12/21 08:45:34;;;;;;;21.33;19.88;;;;;;;;;;5043686;28;20057;-74
2023/12/21 08:48:05;;;;;;;21.73;19.95;;;;;;;;;;5044143;28;20424;-74
2023/12/21 08:50:36;;;;;;;18.70;17.50;;;;;;;;;;5043829;28;20053;-75
2023/12/21 08:53:06;;;;;;;20.02;18.25;;;;;;;;;;5043548;28;20052;-74
2023/12/21 08:55:37;;;;;;;20.30;19.00;;;;;;;;;;5043912;28;20058;-74
2023/12/21 08:58:10;;;;;;;19.67;18.48;;;;;;;;;;5043527;28;20052;-77
2023/12/21 09:00:40;;;;;;;21.60;19.75;;;;;;;;;;5043246;28;20048;-76
2023/12/21 09:03:11;;;;;;;19.70;18.20;;;;;;;;;;5043039;28;20052;-75
2023/12/21 09:05:42;;;;;;;20.23;18.77;;;;;;;;;;5043507;28;20057;-75
2023/12/21 09:08:12;;;;;;;22.70;20.95;;;;;;;;;;5043481;28;20506;-74
2023/12/21 09:10:42;;;;;;;21.27;19.48;;;;;;;;;;5043588;28;20614;-74
2023/12/21 09:13:14;;;;;;;23.80;22.13;;;;;;;;;;5043598;28;20056;-74
2023/12/21 09:15:44;;;;;;;24.13;22.38;;;;;;;;;;5042925;28;20044;-74
2023/12/21 09:18:15;;;;;;;21.35;19.73;;;;;;;;;;5041439;28;20060;-75
2023/12/21 09:20:46;;;;;;;20.60;18.80;;;;;;;;;;5043455;28;20418;-73
2023/12/21 09:23:16;;;;;;;24.23;22.48;;;;;;;;;;5043128;28;20049;-74
2023/12/21 09:25:47;;;;;;;23.90;22.25;;;;;;;;;;5044163;28;20396;-75
2023/12/21 09:28:22;;;;;;;19.80;18.25;;;;;;;;;;5043227;28;20053;-85
2023/12/21 09:30:55;;;;;;;21.85;20.38;;;;;;;;;;5042586;28;20439;-75
2023/12/21 09:33:25;;;;;;;23.23;21.42;;;;;;;;;;5042266;28;20069;-75
2023/12/21 09:35:58;;;;;;;20.42;18.77;;;;;;;;;;5042520;28;20057;-75
2023/12/21 09:38:30;;;;;;;23.48;21.85;;;;;;;;;;5042686;28;20491;-79
2023/12/21 09:41:01;;;;;;;21.15;19.67;;;;;;;;;;5042087;28;20060;-75
2023/12/21 09:43:34;;;;;;;34.33;32.03;;;;;;;;;;5042936;28;20514;-75
2023/12/21 09:46:05;;;;;;;23.50;22.00;;;;;;;;;;5044440;28;20051;-75
2023/12/21 09:48:39;;;;;;;25.75;24.13;;;;;;;;;;5045861;28;20141;-77
2023/12/21 09:51:13;;;;;;;27.70;25.25;;;;;;;;;;5046058;28;20049;-76
2023/12/21 09:53:44;;;;;;;27.55;25.80;;;;;;;;;;5044974;28;20045;-75
2023/12/21 09:56:16;;;;;;;38.33;35.30;;;;;;;;;;5047307;28;20049;-75
2023/12/21 09:58:48;;;;;;;24.75;22.90;;;;;;;;;;5043111;28;20063;-75
2023/12/21 10:01:19;;;;;;;27.92;25.88;;;;;;;;;;5042820;28;20812;-74
2023/12/21 10:03:51;;;;;;;26.90;24.95;;;;;;;;;;5041981;28;20045;-73
2023/12/21 10:06:22;;;;;;;31.05;28.85;;;;;;;;;;5042413;28;20048;-73
2023/12/21 10:08:52;;;;;;;25.45;23.45;;;;;;;;;;5041745;28;20049;-74
2023/12/21 10:11:23;;;;;;;26.02;24.38;;;;;;;;;;5042264;28;20063;-73
2023/12/21 10:13:56;;;;;;;27.10;25.20;;;;;;;;;;5042022;28;20067;-73
2023/12/21 10:16:26;;;;;;;62.40;58.03;;;;;;;;;;5040802;28;20641;-72
2023/12/21 10:18:57;;;;;;;33.38;30.95;;;;;;;;;;5041068;28;20052;-73
2023/12/21 10:21:28;;;;;;;23.58;22.02;;;;;;;;;;5041653;28;20582;-74
2023/12/21 10:24:00;;;;;;;26.85;24.55;;;;;;;;;;5040514;28;20049;-74
2023/12/21 10:26:30;;;;;;;29.70;27.38;;;;;;;;;;5042882;28;20071;-74
2023/12/21 10:29:01;;;;;;;26.42;24.65;;;;;;;;;;5041897;28;20048;-81
2023/12/21 10:31:32;;;;;;;28.92;26.70;;;;;;;;;;5042111;28;20063;-74
2023/12/21 10:34:02;;;;;;;26.40;24.52;;;;;;;;;;5045902;28;20068;-74
2023/12/21 10:36:37;;;;;;;23.67;22.00;;;;;;;;;;5042042;28;20048;-73
2023/12/21 10:39:08;;;;;;;34.50;32.05;;;;;;;;;;5042081;28;20049;-74
2023/12/21 10:41:42;;;;;;;24.38;22.38;;;;;;;;;;5042102;28;20510;-74
2023/12/21 10:44:18;;;;;;;28.92;26.90;;;;;;;;;;5042010;28;20045;-75
2023/12/21 10:46:50;;;;;;;23.73;22.13;;;;;;;;;;5042478;28;20045;-75
2023/12/21 10:49:21;;;;;;;27.33;25.35;;;;;;;;;;5040429;28;20068;-73
2023/12/21 10:51:52;;;;;;;26.08;24.13;;;;;;;;;;5041614;28;20052;-74
2023/12/21 10:54:24;;;;;;;31.23;28.88;;;;;;;;;;5041931;28;20049;-75
2023/12/21 10:56:56;;;;;;;31.45;29.40;;;;;;;;;;5041696;28;20440;-74
2023/12/21 10:59:28;;;;;;;23.17;21.45;;;;;;;;;;5041983;28;20053;-74
2023/12/21 11:01:59;;;;;;;20.40;19.13;;;;;;;;;;5041458;28;20099;-74
2023/12/21 11:04:32;;;;;;;25.90;24.25;;;;;;;;;;5041434;28;20624;-74
2023/12/21 11:07:06;;;;;;;23.77;22.15;;;;;;;;;;5042296;28;20057;-77
2023/12/21 11:09:39;;;;;;;25.27;23.50;;;;;;;;;;5045610;28;20056;-74
2023/12/21 11:12:13;;;;;;;41.80;39.17;;;;;;;;;;5045214;28;20751;-74
2023/12/21 11:14:45;;;;;;;28.38;26.25;;;;;;;;;;5046512;28;20510;-73
2023/12/21 11:17:18;;;;;;;29.42;27.27;;;;;;;;;;5045549;28;20491;-78
2023/12/21 11:19:51;;;;;;;22.17;20.60;;;;;;;;;;5045920;28;20060;-78
2023/12/21 11:22:21;;;;;;;21.35;19.85;;;;;;;;;;5045567;28;20052;-75
2023/12/21 11:25:06;;;;;;;21.55;19.83;;;;;;;;;;5045000;28;20053;-74
2023/12/21 11:27:41;;;;;;;21.90;20.33;;;;;;;;;;5045030;28;20052;-77
2023/12/21 11:30:14;;;;;;;21.23;19.67;;;;;;;;;;5044912;28;20064;-75
2023/12/21 11:32:48;;;;;;;20.13;17.95;;;;;;;;;;5044196;28;20396;-74
2023/12/21 11:35:27;;;;;;;28.98;26.30;;;;;;;;;;5043041;28;20056;-75
2023/12/21 11:37:59;;;;;;;41.65;39.08;;;;;;;;;;5044094;28;20048;-74
2023/12/21 11:40:32;;;;;;;46.03;42.65;;;;;;;;;;5044852;28;20064;-74
2023/12/21 11:43:07;;;;;;;41.53;38.33;;;;;;;;;;5044918;28;20049;-75
2023/12/21 11:45:39;;;;;;;41.08;38.47;;;;;;;;;;5044887;28;20052;-74
2023/12/21 11:48:11;;;;;;;37.45;35.15;;;;;;;;;;5044871;28;20045;-74
2023/12/21 11:50:43;;;;;;;43.72;40.55;;;;;;;;;;5046159;28;20049;-75
2023/12/21 11:53:25;;;;;;;64.82;60.35;;;;;;;;;;5044997;28;20049;-78
2023/12/21 11:56:15;;;;;;;39.38;36.70;;;;;;;;;;5044569;28;20045;-75
2023/12/21 11:58:48;;;;;;;93.95;87.55;;;;;;;;;;5044396;28;20761;-75
2023/12/21 12:01:23;;;;;;;47.60;44.70;;;;;;;;;;5045048;28;20452;-75
2023/12/21 12:03:55;;;;;;;34.17;31.98;;;;;;;;;;5044679;28;20056;-74
2023/12/21 12:06:28;;;;;;;48.03;44.90;;;;;;;;;;5044327;28;20045;-76
2023/12/21 12:08:58;;;;;;;41.13;38.38;;;;;;;;;;5044739;28;20072;-81
2023/12/21 12:11:28;;;;;;;47.53;44.40;;;;;;;;;;5044223;28;20045;-75
2023/12/21 12:13:59;;;;;;;44.90;41.58;;;;;;;;;;5043893;28;20052;-79
2023/12/21 12:16:34;;;;;;;44.05;41.15;;;;;;;;;;5044118;28;20499;-75
2023/12/21 12:19:07;;;;;;;53.50;50.08;;;;;;;;;;5044189;28;20060;-79
2023/12/21 12:21:37;;;;;;;24.75;23.00;;;;;;;;;;5044996;28;20049;-75
2023/12/21 12:24:08;;;;;;;21.55;20.02;;;;;;;;;;5044400;28;20053;-75
2023/12/21 12:26:39;;;;;;;29.83;27.63;;;;;;;;;;5044420;28;20491;-74
2023/12/21 12:29:13;;;;;;;22.73;20.77;;;;;;;;;;5044036;28;20094;-75
2023/12/21 12:31:44;;;;;;;24.17;22.48;;;;;;;;;;5042333;28;20041;-75
2023/12/21 12:34:16;;;;;;;24.25;22.35;;;;;;;;;;5043709;28;20060;-75
2023/12/21 12:36:56;;;;;;;33.70;31.67;;;;;;;;;;5042096;28;20368;-75
2023/12/21 12:39:26;;;;;;;32.35;30.27;;;;;;;;;;5044027;28;20508;-77
2023/12/21 12:42:02;;;;;;;36.00;33.72;;;;;;;;;;5043578;28;20063;-75
2023/12/21 12:44:34;;;;;;;35.28;32.97;;;;;;;;;;5043950;28;20414;-75
2023/12/21 12:47:05;;;;;;;38.70;36.17;;;;;;;;;;5043546;28;21098;-75
2023/12/21 12:49:37;;;;;;;31.80;29.60;;;;;;;;;;5043898;28;20049;-75
2023/12/21 12:52:08;;;;;;;34.45;31.88;;;;;;;;;;5043418;28;20518;-75
2023/12/21 12:54:41;;;;;;;32.97;30.70;;;;;;;;;;5043515;28;20048;-76
2023/12/21 12:57:13;;;;;;;26.75;24.88;;;;;;;;;;5026576;28;20053;-75
2023/12/21 12:59:44;;;;;;;27.80;26.05;;;;;;;;;;5043796;28;20045;-74
2023/12/21 13:02:14;;;;;;;26.60;24.90;;;;;;;;;;5043327;28;20044;-75
2023/12/21 13:04:46;;;;;;;31.13;29.13;;;;;;;;;;5043280;28;20492;-75
2023/12/21 13:07:19;;;;;;;29.48;27.52;;;;;;;;;;5044060;28;20064;-74
2023/12/21 13:09:52;;;;;;;31.67;29.50;;;;;;;;;;5043476;28;20060;-75
2023/12/21 13:12:39;;;;;;;31.45;29.35;;;;;;;;;;5042906;28;20059;-75
2023/12/21 13:15:15;;;;;;;21.08;19.67;;;;;;;;;;5043444;28;20049;-75
2023/12/21 13:17:46;;;;;;;22.30;20.83;;;;;;;;;;5042787;28;20045;-75
2023/12/21 13:20:17;;;;;;;20.90;19.48;;;;;;;;;;5043600;28;20053;-75
2023/12/21 13:22:47;;;;;;;23.52;21.90;;;;;;;;;;5043255;28;20045;-75
2023/12/21 13:25:19;;;;;;;24.67;22.98;;;;;;;;;;5042627;28;20057;-74
2023/12/21 13:27:52;;;;;;;26.13;24.63;;;;;;;;;;5043005;28;20041;-76
2023/12/21 13:30:42;;;;;;;26.80;25.00;;;;;;;;;;5043093;28;20041;-74
2023/12/21 13:33:13;;;;;;;20.33;18.88;;;;;;;;;;5042429;28;20048;-79
2023/12/21 13:35:45;;;;;;;21.83;19.98;;;;;;;;;;5042579;28;20500;-77
2023/12/21 13:38:17;;;;;;;20.92;19.13;;;;;;;;;;5043033;28;20052;-74
2023/12/21 13:40:48;;;;;;;25.02;23.60;;;;;;;;;;5042859;28;20488;-75
2023/12/21 13:43:18;;;;;;;25.98;24.45;;;;;;;;;;5043129;28;20060;-75
2023/12/21 13:45:49;;;;;;;26.17;24.70;;;;;;;;;;5042968;28;20048;-74
2023/12/21 13:48:21;;;;;;;33.47;31.25;;;;;;;;;;5042694;28;20056;-74
2023/12/21 13:50:52;;;;;;;32.20;30.17;;;;;;;;;;5042925;28;20597;-74
2023/12/21 13:53:22;;;;;;;37.00;34.90;;;;;;;;;;5042312;28;20425;-74
2023/12/21 13:55:54;;;;;;;77.40;72.20;;;;;;;;;;5042369;28;20523;-74
2023/12/21 13:58:25;;;;;;;43.10;40.63;;;;;;;;;;5042190;28;20435;-75
2023/12/21 14:00:56;;;;;;;47.83;45.03;;;;;;;;;;5042202;28;20049;-74
2023/12/21 14:03:26;;;;;;;45.97;43.47;;;;;;;;;;5042624;28;20052;-75
2023/12/21 14:05:59;;;;;;;44.90;42.30;;;;;;;;;;5041483;28;20873;-75
2023/12/21 14:08:30;;;;;;;57.20;53.83;;;;;;;;;;5042632;28;20041;-74
2023/12/21 14:11:00;;;;;;;18.95;17.45;;;;;;;;;;5042115;28;20052;-75
2023/12/21 14:13:30;;;;;;;18.33;16.98;;;;;;;;;;5041905;28;20060;-75
2023/12/21 14:16:02;;;;;;;15.40;13.90;;;;;;;;;;5041265;28;20060;-74
2023/12/21 14:18:33;;;;;;;17.27;16.08;;;;;;;;;;5042752;28;20049;-74
2023/12/21 14:21:03;;;;;;;28.95;26.98;;;;;;;;;;5042949;28;20415;-75
2023/12/21 14:23:35;;;;;;;23.33;21.63;;;;;;;;;;5042116;28;20051;-75
2023/12/21 14:26:08;;;;;;;30.38;28.40;;;;;;;;;;5041829;28;20060;-77
2023/12/21 14:28:39;;;;;;;26.17;24.55;;;;;;;;;;5041859;28;20044;-75
2023/12/21 14:31:19;;;;;;;18.60;17.30;;;;;;;;;;5042116;28;20063;-75
2023/12/21 14:33:49;;;;;;;20.13;18.65;;;;;;;;;;5041553;28;20492;-75
2023/12/21 14:36:20;;;;;;;23.63;22.00;;;;;;;;;;5040457;28;20041;-79
2023/12/21 14:38:52;;;;;;;22.48;21.00;;;;;;;;;;5041927;28;20060;-75
2023/12/21 14:41:23;;;;;;;15.27;14.27;;;;;;;;;;5044950;28;20075;-75